Time;durP1;ratioP1;P1;durP2;ratioP2;P2;SDS_P1;SDS_P2;PMS_P1;PMS_P2;Temp;Humidity;BMP_temperature;BMP_pressure;BME280_temperature;BME280_humidity;BME280_pressure;Samples;Min_cycle;Max_cycle;Signal;HPM_P1;HPM_P2
2024/02/15 00:01:30;;;;;;;9.00;5.70;;;8.50;99.90;;;;;;4189609;28;20229;-74
2024/02/15 00:03:33;;;;;;;7.77;5.30;;;8.50;99.90;;;;;;4185915;28;20236;-75
2024/02/15 00:05:36;;;;;;;8.47;5.17;;;8.50;99.90;;;;;;4186820;28;20247;-74
2024/02/15 00:07:37;;;;;;;8.93;5.30;;;8.50;99.90;;;;;;4181589;28;20208;-75
2024/02/15 00:09:39;;;;;;;7.83;5.67;;;8.50;99.90;;;;;;4188767;28;20607;-75
2024/02/15 00:11:41;;;;;;;10.07;5.67;;;8.50;99.90;;;;;;4188034;28;20230;-74
2024/02/15 00:13:44;;;;;;;9.50;5.40;;;8.50;99.90;;;;;;4187591;28;20241;-76
2024/02/15 00:15:49;;;;;;;9.40;5.90;;;8.60;99.90;;;;;;4189503;28;20213;-75
2024/02/15 00:17:49;;;;;;;8.30;5.50;;;8.60;99.90;;;;;;4182682;28;20195;-74
2024/02/15 00:19:52;;;;;;;8.87;5.30;;;8.60;99.90;;;;;;4188137;28;20246;-75
2024/02/15 00:21:53;;;;;;;7.80;5.13;;;8.60;99.90;;;;;;4185469;28;20297;-75
2024/02/15 00:23:59;;;;;;;8.73;5.10;;;8.50;99.90;;;;;;4181195;28;20675;-75
2024/02/15 00:26:01;;;;;;;7.73;5.50;;;8.60;99.90;;;;;;4191674;28;20214;-74
2024/02/15 00:28:02;;;;;;;10.23;5.70;;;8.60;99.90;;;;;;4188824;28;20659;-74
2024/02/15 00:30:07;;;;;;;11.40;5.63;;;8.60;99.90;;;;;;4185699;28;20395;-77
2024/02/15 00:32:10;;;;;;;8.27;5.40;;;8.60;99.90;;;;;;4186246;28;20229;-74
2024/02/15 00:34:12;;;;;;;7.50;5.17;;;8.60;99.90;;;;;;4186574;28;20205;-75
2024/02/15 00:36:14;;;;;;;8.10;5.13;;;8.60;99.90;;;;;;4188711;28;20231;-74
2024/02/15 00:38:16;;;;;;;8.93;5.43;;;8.60;99.90;;;;;;4188501;28;20209;-74
2024/02/15 00:40:20;;;;;;;8.23;4.93;;;8.60;99.90;;;;;;4183902;28;20292;-74
2024/02/15 00:42:22;;;;;;;7.73;5.30;;;8.60;99.90;;;;;;4184599;28;20228;-75
2024/02/15 00:44:23;;;;;;;9.63;4.80;;;8.60;99.90;;;;;;4189834;28;20659;-74
2024/02/15 00:46:29;;;;;;;8.53;5.13;;;8.60;99.90;;;;;;4193437;28;20199;-75
2024/02/15 00:48:31;;;;;;;9.47;5.13;;;8.60;99.90;;;;;;4187269;28;20807;-75
2024/02/15 00:50:33;;;;;;;8.77;5.60;;;8.60;99.90;;;;;;4182924;28;20260;-75
2024/02/15 00:52:35;;;;;;;7.83;5.17;;;8.60;99.90;;;;;;4186540;28;20251;-74
2024/02/15 00:54:40;;;;;;;8.43;4.90;;;8.60;99.90;;;;;;4186875;28;20246;-75
2024/02/15 00:56:42;;;;;;;8.73;4.97;;;8.70;99.90;;;;;;4185162;28;20232;-74
2024/02/15 00:58:44;;;;;;;7.47;4.70;;;8.60;99.90;;;;;;4185688;28;20238;-74
2024/02/15 01:00:47;;;;;;;7.27;4.70;;;8.60;99.90;;;;;;4185597;28;20228;-74
2024/02/15 01:02:51;;;;;;;7.50;4.67;;;8.60;99.90;;;;;;4183716;28;20228;-75
2024/02/15 01:04:56;;;;;;;7.37;4.50;;;8.60;99.90;;;;;;4188903;28;20215;-74
2024/02/15 01:06:58;;;;;;;7.03;4.37;;;8.60;99.90;;;;;;4187445;28;20250;-74
2024/02/15 01:09:02;;;;;;;9.27;4.93;;;8.60;99.90;;;;;;4185372;28;20227;-74
2024/02/15 01:11:06;;;;;;;8.20;5.10;;;8.60;99.90;;;;;;4187924;28;20678;-74
2024/02/15 01:13:08;;;;;;;7.47;4.97;;;8.70;99.90;;;;;;4190077;28;20204;-74
2024/02/15 01:15:10;;;;;;;7.40;4.83;;;8.60;99.90;;;;;;4184769;28;20201;-74
2024/02/15 01:17:13;;;;;;;7.77;5.00;;;8.60;99.90;;;;;;4185735;28;20205;-75
2024/02/15 01:19:16;;;;;;;6.87;4.87;;;8.60;99.90;;;;;;4186706;28;20212;-74
2024/02/15 01:21:19;;;;;;;8.47;4.90;;;8.70;99.90;;;;;;4190606;28;20238;-74
2024/02/15 01:23:22;;;;;;;11.23;4.80;;;8.70;99.90;;;;;;4190709;28;20249;-74
2024/02/15 01:25:24;;;;;;;7.53;4.60;;;8.70;99.90;;;;;;4187461;28;20303;-74
2024/02/15 01:27:30;;;;;;;8.23;4.33;;;8.70;99.90;;;;;;4187698;28;20677;-74
2024/02/15 01:29:32;;;;;;;6.27;4.43;;;8.80;99.90;;;;;;4193144;28;20202;-74
2024/02/15 01:31:34;;;;;;;8.80;4.70;;;8.70;99.90;;;;;;4179222;28;20319;-74
2024/02/15 01:33:36;;;;;;;7.13;4.30;;;8.70;99.90;;;;;;4185716;28;20216;-74
2024/02/15 01:35:40;;;;;;;7.07;4.73;;;8.70;99.90;;;;;;4188523;28;20212;-75
2024/02/15 01:37:44;;;;;;;6.67;4.33;;;8.70;99.90;;;;;;4187632;28;20215;-74
2024/02/15 01:39:45;;;;;;;7.43;4.77;;;8.70;99.90;;;;;;4184274;28;20212;-75
2024/02/15 01:41:51;;;;;;;8.57;4.40;;;8.70;99.90;;;;;;4184924;28;20251;-74
2024/02/15 01:43:53;;;;;;;7.70;4.30;;;8.70;99.90;;;;;;4182874;28;20278;-74
2024/02/15 01:46:01;;;;;;;7.53;4.90;;;8.70;99.90;;;;;;4186381;28;20672;-74
2024/02/15 01:48:06;;;;;;;6.73;4.13;;;8.70;99.90;;;;;;4185978;28;20204;-74
2024/02/15 01:50:12;;;;;;;7.03;4.13;;;8.70;99.90;;;;;;4179443;28;20214;-75
2024/02/15 01:52:18;;;;;;;6.80;4.30;;;8.70;99.90;;;;;;4186209;28;20662;-74
2024/02/15 01:54:20;;;;;;;5.77;3.60;;;8.70;99.90;;;;;;4182486;28;20294;-74
2024/02/15 01:56:24;;;;;;;7.13;4.00;;;8.70;99.90;;;;;;4184568;28;20269;-75
2024/02/15 01:58:27;;;;;;;6.63;3.60;;;8.70;99.90;;;;;;4189124;28;20739;-75
2024/02/15 02:00:31;;;;;;;6.37;3.67;;;8.70;99.90;;;;;;4190594;28;20246;-75
2024/02/15 02:02:36;;;;;;;6.07;3.50;;;8.70;99.90;;;;;;4183507;28;20219;-74
2024/02/15 02:04:38;;;;;;;4.47;3.40;;;8.70;99.90;;;;;;4189883;28;20261;-74
2024/02/15 02:06:41;;;;;;;4.17;3.13;;;8.70;99.90;;;;;;4184748;28;20209;-74
2024/02/15 02:08:44;;;;;;;5.13;3.70;;;8.70;99.90;;;;;;4186023;28;20261;-74
2024/02/15 02:10:49;;;;;;;4.63;3.30;;;8.80;99.90;;;;;;4186175;28;20216;-74
2024/02/15 02:12:51;;;;;;;4.37;3.37;;;8.80;99.90;;;;;;4189562;28;20215;-75
2024/02/15 02:14:53;;;;;;;5.10;3.20;;;8.70;99.90;;;;;;4184796;28;20254;-75
2024/02/15 02:16:56;;;;;;;3.70;3.00;;;8.80;99.90;;;;;;4181652;28;20296;-74
2024/02/15 02:18:58;;;;;;;4.73;3.20;;;8.80;99.90;;;;;;4180963;28;20271;-74
2024/02/15 02:21:05;;;;;;;4.80;3.40;;;8.80;99.90;;;;;;4186502;28;20667;-74
2024/02/15 02:23:13;;;;;;;5.83;3.77;;;8.80;99.90;;;;;;4182324;28;20234;-75
2024/02/15 02:25:18;;;;;;;5.23;3.30;;;8.80;99.90;;;;;;4189964;28;20198;-75
2024/02/15 02:27:23;;;;;;;4.30;2.87;;;8.80;99.90;;;;;;4183086;28;20215;-75
2024/02/15 02:29:25;;;;;;;8.93;3.23;;;8.80;99.90;;;;;;4183917;28;20200;-76
2024/02/15 02:31:27;;;;;;;5.90;3.20;;;8.80;99.90;;;;;;4186589;28;20226;-75
2024/02/15 02:33:29;;;;;;;4.63;3.07;;;8.70;99.90;;;;;;4185286;28;20634;-76
2024/02/15 02:35:34;;;;;;;3.80;2.77;;;8.80;99.90;;;;;;4180941;28;20217;-76
2024/02/15 02:37:36;;;;;;;4.93;3.23;;;8.80;99.90;;;;;;4183964;28;20222;-75
2024/02/15 02:39:38;;;;;;;4.13;3.00;;;8.80;99.90;;;;;;4182547;28;20209;-76
2024/02/15 02:41:42;;;;;;;3.93;3.00;;;8.80;99.90;;;;;;4184596;28;20220;-76
2024/02/15 02:43:44;;;;;;;5.97;3.77;;;8.80;99.90;;;;;;4185225;28;20268;-76
2024/02/15 02:45:46;;;;;;;5.10;3.10;;;8.80;99.90;;;;;;4185398;28;20231;-75
2024/02/15 02:47:48;;;;;;;7.13;3.43;;;8.80;99.90;;;;;;4187195;28;20227;-76
2024/02/15 02:49:50;;;;;;;8.00;3.03;;;8.80;99.90;;;;;;4186076;28;20214;-75
2024/02/15 02:51:52;;;;;;;4.57;3.20;;;8.80;99.90;;;;;;4186170;28;20249;-76
2024/02/15 02:53:53;;;;;;;4.20;2.87;;;8.80;99.90;;;;;;4178927;28;20251;-76
2024/02/15 02:55:57;;;;;;;4.63;3.00;;;8.80;99.90;;;;;;4183908;28;20200;-75
2024/02/15 02:58:00;;;;;;;6.73;3.20;;;8.80;99.90;;;;;;4185602;28;20264;-76
2024/02/15 03:00:07;;;;;;;6.40;3.40;;;8.90;99.90;;;;;;4185858;28;20217;-74
2024/02/15 03:02:09;;;;;;;6.97;3.87;;;8.90;99.90;;;;;;4187296;28;20636;-76
2024/02/15 03:04:16;;;;;;;3.87;3.10;;;8.90;99.90;;;;;;4186769;28;20283;-76
2024/02/15 03:06:19;;;;;;;5.77;3.73;;;8.90;99.90;;;;;;4187069;28;20204;-75
2024/02/15 03:08:22;;;;;;;5.33;3.53;;;8.90;99.90;;;;;;4187980;28;20256;-76
2024/02/15 03:10:26;;;;;;;5.03;3.70;;;8.90;99.90;;;;;;4185879;28;20212;-76
2024/02/15 03:12:27;;;;;;;4.77;3.37;;;8.90;99.90;;;;;;4185396;28;20321;-75
2024/02/15 03:14:32;;;;;;;4.80;3.30;;;8.90;99.90;;;;;;4185014;28;20206;-76
2024/02/15 03:16:34;;;;;;;6.20;3.73;;;8.90;99.90;;;;;;4184154;28;20208;-76
2024/02/15 03:18:36;;;;;;;6.17;3.20;;;8.90;99.90;;;;;;4182868;28;20555;-75
2024/02/15 03:20:38;;;;;;;4.70;3.50;;;8.90;99.90;;;;;;4187733;28;20215;-75
2024/02/15 03:22:41;;;;;;;5.10;3.43;;;8.90;99.90;;;;;;4184077;28;20228;-75
2024/02/15 03:24:43;;;;;;;4.77;3.30;;;8.90;99.90;;;;;;4183858;28;20213;-76
2024/02/15 03:26:45;;;;;;;4.63;3.13;;;8.90;99.90;;;;;;4186745;28;20628;-75
2024/02/15 03:28:46;;;;;;;6.10;3.00;;;8.90;99.90;;;;;;4187243;28;20233;-75
2024/02/15 03:30:50;;;;;;;4.13;2.80;;;8.90;99.90;;;;;;4190345;28;20212;-76
2024/02/15 03:32:51;;;;;;;4.43;3.27;;;8.90;99.90;;;;;;4186482;28;20229;-74
2024/02/15 03:34:54;;;;;;;5.03;3.50;;;8.90;99.90;;;;;;4187862;28;20290;-75
2024/02/15 03:36:56;;;;;;;5.77;3.13;;;8.90;99.90;;;;;;4187382;28;20212;-75
2024/02/15 03:38:57;;;;;;;4.07;3.17;;;8.90;99.90;;;;;;4188980;28;20264;-75
2024/02/15 03:40:59;;;;;;;5.70;3.80;;;8.80;99.90;;;;;;4188705;28;20674;-76
2024/02/15 03:43:06;;;;;;;6.53;3.60;;;8.80;99.90;;;;;;4186213;28;20221;-75
2024/02/15 03:45:09;;;;;;;3.80;2.83;;;8.90;99.90;;;;;;4186178;28;20205;-76
2024/02/15 03:47:13;;;;;;;5.47;2.97;;;8.90;99.90;;;;;;4185306;28;20298;-77
2024/02/15 03:49:15;;;;;;;3.97;3.10;;;8.90;99.90;;;;;;4186132;28;20635;-75
2024/02/15 03:51:18;;;;;;;4.50;2.73;;;8.90;99.90;;;;;;4182821;28;20211;-75
2024/02/15 03:53:20;;;;;;;4.00;3.03;;;8.90;99.90;;;;;;4184181;28;20222;-75
2024/02/15 03:55:25;;;;;;;4.37;2.80;;;8.90;99.90;;;;;;4186397;28;20273;-75
2024/02/15 03:57:27;;;;;;;5.07;3.23;;;8.90;99.90;;;;;;4185076;28;20672;-76
2024/02/15 03:59:28;;;;;;;4.00;3.10;;;8.90;99.90;;;;;;4188882;28;20265;-76
2024/02/15 04:01:33;;;;;;;5.43;3.10;;;8.90;99.90;;;;;;4185326;28;20224;-75
2024/02/15 04:03:37;;;;;;;4.97;3.13;;;8.90;99.90;;;;;;4190015;28;20237;-76
2024/02/15 04:05:39;;;;;;;5.60;3.30;;;8.90;99.90;;;;;;4207696;28;20245;-76
2024/02/15 04:07:41;;;;;;;5.57;2.70;;;8.80;99.90;;;;;;4188584;28;20216;-76
2024/02/15 04:09:42;;;;;;;4.10;3.03;;;8.90;99.90;;;;;;4189379;28;20223;-76
2024/02/15 04:11:46;;;;;;;4.50;2.90;;;8.90;99.90;;;;;;4193717;28;20236;-75
2024/02/15 04:13:47;;;;;;;7.07;3.33;;;8.90;99.90;;;;;;4190848;28;21003;-76
2024/02/15 04:15:50;;;;;;;5.70;3.50;;;8.90;99.90;;;;;;4190581;28;20209;-76
2024/02/15 04:17:55;;;;;;;5.67;3.40;;;8.90;99.90;;;;;;4196077;28;20213;-74
2024/02/15 04:19:58;;;;;;;7.60;3.40;;;8.90;99.90;;;;;;4190295;28;20205;-76
2024/02/15 04:22:04;;;;;;;5.93;3.37;;;8.90;99.90;;;;;;4189951;28;20221;-76
2024/02/15 04:24:06;;;;;;;5.20;3.50;;;8.90;99.90;;;;;;4187693;28;20760;-75
2024/02/15 04:26:08;;;;;;;5.20;3.37;;;8.90;99.90;;;;;;4187005;28;20201;-76
2024/02/15 04:28:10;;;;;;;4.23;3.00;;;8.90;99.90;;;;;;4190452;28;20311;-76
2024/02/15 04:30:13;;;;;;;4.30;2.80;;;8.90;99.90;;;;;;4187337;28;20288;-75
2024/02/15 04:32:19;;;;;;;4.40;2.53;;;8.90;99.90;;;;;;4190692;28;20225;-75
2024/02/15 04:34:20;;;;;;;4.40;3.00;;;8.90;99.90;;;;;;4188882;28;20204;-75
2024/02/15 04:36:24;;;;;;;3.40;2.67;;;8.90;99.90;;;;;;4184294;28;20210;-76
2024/02/15 04:38:26;;;;;;;3.57;2.80;;;8.90;99.90;;;;;;4186370;28;20255;-76
2024/02/15 04:40:28;;;;;;;4.97;3.00;;;8.90;99.90;;;;;;4191966;28;20210;-75
2024/02/15 04:42:32;;;;;;;4.87;3.03;;;8.90;99.90;;;;;;4191924;28;20229;-74
2024/02/15 04:44:35;;;;;;;5.63;3.10;;;8.90;99.90;;;;;;4187969;28;20224;-75
2024/02/15 04:46:37;;;;;;;7.17;3.30;;;9.00;99.90;;;;;;4184916;28;20707;-76
2024/02/15 04:48:41;;;;;;;3.60;2.87;;;9.00;99.90;;;;;;4186333;28;20587;-77
2024/02/15 04:50:43;;;;;;;4.57;3.30;;;9.00;99.90;;;;;;4189502;28;20209;-76
2024/02/15 04:52:48;;;;;;;4.47;2.83;;;8.90;99.90;;;;;;4186297;28;20606;-76
2024/02/15 04:54:50;;;;;;;5.20;2.90;;;9.00;99.90;;;;;;4189272;28;20212;-75
2024/02/15 04:56:54;;;;;;;5.23;3.40;;;8.90;99.90;;;;;;4184573;28;20201;-75
2024/02/15 04:58:56;;;;;;;6.40;3.60;;;8.90;99.90;;;;;;4187439;28;20267;-75
2024/02/15 05:00:59;;;;;;;4.10;2.80;;;8.90;99.90;;;;;;4193873;28;20217;-76
2024/02/15 05:03:01;;;;;;;4.43;2.80;;;8.90;99.90;;;;;;4185315;28;20222;-76
2024/02/15 05:05:05;;;;;;;4.63;2.73;;;8.90;99.90;;;;;;4187395;28;20311;-76
2024/02/15 05:07:07;;;;;;;4.73;2.73;;;9.00;99.90;;;;;;4184058;28;20295;-76
2024/02/15 05:09:12;;;;;;;4.13;2.40;;;8.90;99.90;;;;;;4182559;28;20198;-76
2024/02/15 05:11:17;;;;;;;5.03;2.53;;;9.00;99.90;;;;;;4189686;28;20676;-76
2024/02/15 05:13:19;;;;;;;4.23;2.53;;;9.00;99.90;;;;;;4187278;28;20210;-76
2024/02/15 05:15:24;;;;;;;3.87;2.60;;;8.90;99.90;;;;;;4187322;28;20284;-76
2024/02/15 05:17:25;;;;;;;3.33;2.43;;;9.00;99.90;;;;;;4184038;28;20209;-75
2024/02/15 05:19:30;;;;;;;5.70;2.80;;;9.00;99.90;;;;;;4186922;28;20217;-75
2024/02/15 05:21:33;;;;;;;3.83;2.67;;;9.00;99.90;;;;;;4186312;28;20684;-75
2024/02/15 05:23:34;;;;;;;6.17;2.40;;;9.00;99.90;;;;;;4180705;28;20211;-75
2024/02/15 05:25:38;;;;;;;3.30;2.40;;;8.90;99.90;;;;;;4182867;28;20204;-76
2024/02/15 05:27:41;;;;;;;5.80;3.60;;;9.00;99.90;;;;;;4186443;28;20327;-76
2024/02/15 05:29:43;;;;;;;3.97;2.73;;;9.00;99.90;;;;;;4190264;28;20282;-76
2024/02/15 05:31:45;;;;;;;3.30;2.20;;;8.90;99.90;;;;;;4185899;28;20234;-76
2024/02/15 05:33:48;;;;;;;2.40;2.17;;;8.90;99.90;;;;;;4185332;28;20273;-77
2024/02/15 05:35:51;;;;;;;3.53;2.30;;;8.90;99.90;;;;;;4184099;28;20213;-76
2024/02/15 05:37:53;;;;;;;3.23;2.20;;;8.90;99.90;;;;;;4189525;28;20238;-77
2024/02/15 05:39:55;;;;;;;3.70;2.17;;;8.90;99.90;;;;;;4182058;28;20752;-77
2024/02/15 05:42:00;;;;;;;3.13;2.23;;;8.90;99.90;;;;;;4189563;28;20221;-76
2024/02/15 05:44:04;;;;;;;3.23;2.40;;;8.90;99.90;;;;;;4186884;28;20226;-76
2024/02/15 05:46:07;;;;;;;4.13;2.43;;;8.90;99.90;;;;;;4181320;28;20256;-76
2024/02/15 05:48:08;;;;;;;5.50;2.50;;;8.90;99.90;;;;;;4190596;28;20213;-76
2024/02/15 05:50:10;;;;;;;4.43;2.50;;;8.90;99.90;;;;;;4184727;28;20204;-76
2024/02/15 05:52:12;;;;;;;4.10;2.60;;;8.90;99.90;;;;;;4185881;28;20262;-76
2024/02/15 05:54:14;;;;;;;2.63;2.10;;;8.90;99.90;;;;;;4188861;28;20629;-76
2024/02/15 05:56:16;;;;;;;3.00;2.40;;;8.90;99.90;;;;;;4185344;28;20211;-76
2024/02/15 05:58:18;;;;;;;2.73;2.23;;;8.90;99.90;;;;;;4186687;28;20317;-76
2024/02/15 06:00:22;;;;;;;3.70;2.37;;;8.90;99.90;;;;;;4187790;28;20254;-77
2024/02/15 06:02:24;;;;;;;6.50;2.60;;;8.90;99.90;;;;;;4183308;28;20226;-76
2024/02/15 06:04:26;;;;;;;5.00;2.57;;;8.90;99.90;;;;;;4179692;28;20641;-76
2024/02/15 06:06:28;;;;;;;4.47;2.80;;;8.80;99.90;;;;;;4181227;28;20212;-76
2024/02/15 06:08:29;;;;;;;5.90;3.10;;;8.90;99.90;;;;;;4185399;28;20213;-76
2024/02/15 06:10:31;;;;;;;5.90;2.87;;;8.80;99.90;;;;;;4190003;28;20201;-76
2024/02/15 06:12:33;;;;;;;5.43;3.27;;;8.80;99.90;;;;;;4181309;28;20267;-76
2024/02/15 06:14:37;;;;;;;8.90;3.30;;;8.80;99.90;;;;;;4181432;28;20209;-77
2024/02/15 06:16:43;;;;;;;4.90;3.03;;;8.80;99.90;;;;;;4178364;28;20231;-75
2024/02/15 06:18:47;;;;;;;4.23;2.93;;;8.70;99.90;;;;;;4179911;28;20207;-76
2024/02/15 06:20:50;;;;;;;4.90;2.87;;;8.70;99.90;;;;;;4184362;28;20219;-75
2024/02/15 06:22:52;;;;;;;4.97;3.00;;;8.70;99.90;;;;;;4181252;28;20697;-74
2024/02/15 06:24:53;;;;;;;8.00;3.43;;;8.70;99.90;;;;;;4185312;28;20710;-74
2024/02/15 06:26:59;;;;;;;8.77;5.10;;;8.70;99.90;;;;;;4179927;28;20222;-74
2024/02/15 06:41:03;;;;;;;3.70;2.50;;;8.60;99.90;;;;;;4150445;28;20216;-75
2024/02/15 06:43:05;;;;;;;3.50;2.50;;;8.60;99.90;;;;;;4181785;28;20689;-80
2024/02/15 06:45:07;;;;;;;3.00;2.10;;;8.60;99.90;;;;;;4185688;28;20227;-76
2024/02/15 06:47:12;;;;;;;6.10;2.73;;;8.60;99.90;;;;;;4186871;28;20213;-75
2024/02/15 06:49:14;;;;;;;8.87;3.40;;;8.60;99.90;;;;;;4176076;28;20212;-74
2024/02/15 06:51:16;;;;;;;4.67;3.07;;;8.60;99.90;;;;;;4173392;28;20203;-76
2024/02/15 06:53:20;;;;;;;4.27;2.93;;;8.60;99.90;;;;;;4192267;28;20216;-74
2024/02/15 06:55:27;;;;;;;4.53;2.70;;;8.60;99.90;;;;;;4181813;28;20668;-75
2024/02/15 06:57:28;;;;;;;4.80;2.50;;;8.70;99.90;;;;;;4182996;28;20218;-75
2024/02/15 06:59:29;;;;;;;4.47;2.93;;;8.60;99.90;;;;;;4184913;28;20284;-74
2024/02/15 07:01:32;;;;;;;3.93;2.60;;;8.70;99.90;;;;;;4192680;28;20265;-75
2024/02/15 07:03:35;;;;;;;4.40;2.90;;;8.80;99.90;;;;;;4186238;28;20251;-74
2024/02/15 07:05:37;;;;;;;3.60;2.60;;;8.70;99.90;;;;;;4185030;28;20224;-75
2024/02/15 07:07:42;;;;;;;4.40;3.10;;;8.80;99.90;;;;;;4184044;28;20269;-75
2024/02/15 07:09:44;;;;;;;5.07;2.90;;;8.80;99.90;;;;;;4185484;28;20203;-74
2024/02/15 07:11:46;;;;;;;5.93;2.57;;;8.80;99.90;;;;;;4184975;28;20246;-75
2024/02/15 07:13:48;;;;;;;4.77;2.83;;;8.80;99.90;;;;;;4190733;28;20624;-75
2024/02/15 07:15:50;;;;;;;6.30;3.00;;;8.90;99.90;;;;;;4189103;28;20209;-75
2024/02/15 07:17:54;;;;;;;5.47;3.13;;;8.90;99.90;;;;;;4187089;28;20881;-75
2024/02/15 07:19:57;;;;;;;7.43;3.80;;;8.90;99.90;;;;;;4191332;28;20231;-74
2024/02/15 07:21:59;;;;;;;4.53;3.00;;;8.90;99.90;;;;;;4187392;28;20226;-75
2024/02/15 07:24:01;;;;;;;4.97;3.37;;;9.00;99.90;;;;;;4187203;28;20291;-74
2024/02/15 07:26:03;;;;;;;4.37;2.90;;;9.00;99.90;;;;;;4186115;28;20228;-74
2024/02/15 07:28:08;;;;;;;6.43;3.17;;;9.00;99.90;;;;;;4185532;28;20195;-74
2024/02/15 07:30:11;;;;;;;5.60;3.00;;;9.00;99.90;;;;;;4187588;28;20232;-77
2024/02/15 07:32:13;;;;;;;5.80;3.00;;;9.10;99.90;;;;;;4183080;28;20233;-77
2024/02/15 07:34:15;;;;;;;4.90;2.87;;;9.10;99.90;;;;;;4191435;28;20232;-74
2024/02/15 07:36:21;;;;;;;5.03;2.60;;;9.10;99.90;;;;;;4187294;28;20297;-74
2024/02/15 07:38:22;;;;;;;4.13;2.33;;;9.20;99.90;;;;;;4188261;28;20632;-73
2024/02/15 07:40:28;;;;;;;4.67;3.20;;;9.30;99.90;;;;;;4185146;28;20216;-72
2024/02/15 07:42:34;;;;;;;3.60;2.50;;;9.30;99.90;;;;;;4184126;28;20763;-74
2024/02/15 07:44:37;;;;;;;4.03;2.60;;;9.30;99.90;;;;;;4188385;28;20584;-74
2024/02/15 07:46:38;;;;;;;4.07;2.30;;;9.40;99.90;;;;;;4187902;28;20291;-73
2024/02/15 07:48:45;;;;;;;5.10;2.93;;;9.40;99.90;;;;;;4187442;28;20209;-74
2024/02/15 07:50:47;;;;;;;4.20;2.67;;;9.40;99.90;;;;;;4185115;28;20205;-74
2024/02/15 07:52:51;;;;;;;3.60;2.40;;;9.40;99.90;;;;;;4183655;28;20221;-74
2024/02/15 07:54:53;;;;;;;3.37;2.43;;;9.50;99.90;;;;;;4186844;28;20807;-74
2024/02/15 07:56:54;;;;;;;7.23;4.30;;;9.50;99.90;;;;;;4186866;28;20214;-73
2024/02/15 07:58:56;;;;;;;8.27;4.30;;;9.50;99.90;;;;;;4184427;28;20248;-73
2024/02/15 08:00:59;;;;;;;4.80;3.20;;;9.50;99.90;;;;;;4184044;28;20237;-74
2024/02/15 08:03:01;;;;;;;6.30;3.57;;;9.60;99.90;;;;;;4185038;28;20259;-74
2024/02/15 08:05:05;;;;;;;5.50;2.47;;;9.60;99.90;;;;;;4187130;28;20218;-74
2024/02/15 08:07:10;;;;;;;5.07;2.90;;;9.60;99.90;;;;;;4184405;28;20212;-74
2024/02/15 08:09:14;;;;;;;4.00;3.03;;;9.60;99.90;;;;;;4184767;28;20202;-74
2024/02/15 08:11:16;;;;;;;5.83;3.10;;;9.70;99.90;;;;;;4187664;28;20563;-74
2024/02/15 08:13:22;;;;;;;4.93;2.80;;;9.70;99.90;;;;;;4185406;28;20283;-74
2024/02/15 08:15:27;;;;;;;5.17;3.00;;;9.70;99.90;;;;;;4183546;28;20208;-74
2024/02/15 08:17:29;;;;;;;5.57;3.13;;;9.80;99.90;;;;;;4183279;28;20210;-74
2024/02/15 08:19:31;;;;;;;4.17;2.50;;;9.80;99.90;;;;;;4183811;28;20212;-74
2024/02/15 08:21:35;;;;;;;5.97;2.80;;;9.80;99.90;;;;;;4181145;28;20405;-74
2024/02/15 08:23:38;;;;;;;4.63;2.97;;;9.80;99.90;;;;;;4183940;28;20285;-75
2024/02/15 08:25:40;;;;;;;5.90;3.20;;;9.80;99.90;;;;;;4182069;28;20248;-73
2024/02/15 08:27:45;;;;;;;4.67;2.77;;;9.80;99.90;;;;;;4182257;28;20705;-73
2024/02/15 08:29:46;;;;;;;5.03;2.80;;;9.90;99.90;;;;;;4187904;28;20244;-73
2024/02/15 08:31:48;;;;;;;5.03;3.00;;;9.90;99.90;;;;;;4187844;28;20689;-74
2024/02/15 08:33:50;;;;;;;5.03;2.80;;;9.90;99.90;;;;;;4182628;28;20624;-74
2024/02/15 08:35:54;;;;;;;5.50;3.20;;;10.00;99.90;;;;;;4185484;28;20202;-74
2024/02/15 08:37:56;;;;;;;5.87;2.97;;;10.00;99.90;;;;;;4186346;28;20237;-74
2024/02/15 08:39:59;;;;;;;5.00;2.90;;;10.00;99.90;;;;;;4184283;28;20218;-74
2024/02/15 08:42:24;;;;;;;6.03;3.47;;;10.10;99.90;;;;;;4185798;28;20233;-75
2024/02/15 08:44:26;;;;;;;4.97;2.67;;;10.10;99.90;;;;;;4188746;28;20199;-74
2024/02/15 08:46:31;;;;;;;4.43;2.80;;;10.10;99.90;;;;;;4186331;28;20230;-73
2024/02/15 08:48:33;;;;;;;4.70;2.87;;;10.20;99.90;;;;;;4185203;28;20206;-74
2024/02/15 08:50:35;;;;;;;8.37;4.97;;;10.20;99.90;;;;;;4187987;28;20213;-73
2024/02/15 08:52:37;;;;;;;10.53;4.97;;;10.20;99.90;;;;;;4189545;28;20301;-74
2024/02/15 08:54:39;;;;;;;5.57;3.40;;;10.20;99.90;;;;;;4187282;28;20260;-75
2024/02/15 08:56:41;;;;;;;5.73;2.83;;;10.30;99.90;;;;;;4190296;28;20223;-75
2024/02/15 08:58:43;;;;;;;5.90;2.90;;;10.30;99.90;;;;;;4186766;28;20209;-74
2024/02/15 09:00:45;;;;;;;4.60;3.17;;;10.40;99.90;;;;;;4187167;28;20208;-73
2024/02/15 09:02:48;;;;;;;4.63;3.10;;;10.40;99.90;;;;;;4186591;28;20226;-73
2024/02/15 09:04:51;;;;;;;7.07;3.27;;;10.40;99.90;;;;;;4183104;28;20281;-74
2024/02/15 09:06:53;;;;;;;5.07;3.00;;;10.50;99.90;;;;;;4184964;28;20650;-74
2024/02/15 09:08:58;;;;;;;6.47;3.10;;;10.50;99.90;;;;;;4187793;28;20216;-74
2024/02/15 09:11:00;;;;;;;6.20;3.13;;;10.50;99.90;;;;;;4185038;28;20210;-73
2024/02/15 09:13:02;;;;;;;5.30;3.20;;;10.60;99.90;;;;;;4185044;28;20233;-74
2024/02/15 09:15:07;;;;;;;5.17;3.30;;;10.60;99.90;;;;;;4186574;28;20203;-74
2024/02/15 09:17:08;;;;;;;4.83;3.03;;;10.70;99.90;;;;;;4181033;28;20214;-75
2024/02/15 09:19:10;;;;;;;5.83;3.20;;;10.70;99.90;;;;;;4186322;28;20242;-74
2024/02/15 09:21:15;;;;;;;5.13;3.60;;;10.80;99.90;;;;;;4186241;28;20201;-74
2024/02/15 09:23:17;;;;;;;5.53;2.83;;;10.80;99.90;;;;;;4188274;28;20219;-74
2024/02/15 09:25:19;;;;;;;7.63;3.30;;;10.80;99.90;;;;;;4186282;28;20221;-74
2024/02/15 09:27:22;;;;;;;4.77;3.30;;;10.90;99.90;;;;;;4183334;28;20207;-75
2024/02/15 09:29:25;;;;;;;7.07;3.60;;;11.00;99.90;;;;;;4180683;28;20237;-73
2024/02/15 09:31:28;;;;;;;6.40;3.17;;;11.00;99.90;;;;;;4184350;28;20225;-73
2024/02/15 09:33:30;;;;;;;6.83;3.17;;;11.10;99.90;;;;;;4182482;28;20211;-74
2024/02/15 09:35:32;;;;;;;5.63;3.10;;;11.10;99.90;;;;;;4186364;28;20590;-74
2024/02/15 09:37:34;;;;;;;5.63;3.00;;;11.20;99.90;;;;;;4185446;28;20203;-73
2024/02/15 09:39:38;;;;;;;7.23;3.20;;;11.30;99.90;;;;;;4187103;28;20809;-73
2024/02/15 09:41:40;;;;;;;7.27;3.10;;;11.30;99.90;;;;;;4185542;28;20307;-74
2024/02/15 09:43:42;;;;;;;4.97;2.73;;;11.30;99.90;;;;;;4187851;28;20222;-73
2024/02/15 09:45:43;;;;;;;4.67;3.00;;;11.40;99.90;;;;;;4183119;28;20774;-74
2024/02/15 09:47:49;;;;;;;7.70;3.20;;;11.40;99.90;;;;;;4185307;28;20203;-74
2024/02/15 09:49:51;;;;;;;8.20;4.47;;;11.40;99.90;;;;;;4185864;28;20211;-74
2024/02/15 09:51:54;;;;;;;7.73;4.80;;;11.40;99.90;;;;;;4185224;28;20285;-74
2024/02/15 09:53:58;;;;;;;7.33;3.40;;;11.50;99.90;;;;;;4183711;28;20204;-74
2024/02/15 09:56:04;;;;;;;6.53;3.57;;;11.40;99.90;;;;;;4181248;28;20204;-74
2024/02/15 09:58:06;;;;;;;5.13;3.00;;;11.50;99.90;;;;;;4185671;28;20209;-74
2024/02/15 10:00:13;;;;;;;8.97;3.40;;;11.50;99.90;;;;;;4186865;28;20214;-74
2024/02/15 10:02:15;;;;;;;5.40;2.90;;;11.50;99.90;;;;;;4183126;28;20722;-74
2024/02/15 10:04:19;;;;;;;4.40;2.80;;;11.60;99.90;;;;;;4184161;28;20205;-74
2024/02/15 10:06:22;;;;;;;6.90;3.27;;;11.60;99.90;;;;;;4185445;28;20250;-74
2024/02/15 10:08:24;;;;;;;3.90;2.83;;;11.70;99.90;;;;;;4182943;28;20279;-74
2024/02/15 10:10:26;;;;;;;5.40;3.10;;;11.80;99.90;;;;;;4188697;28;20671;-74
2024/02/15 10:12:39;;;;;;;4.97;3.20;;;11.80;99.90;;;;;;4185193;28;20244;-73
2024/02/15 10:14:49;;;;;;;5.63;3.10;;;11.80;99.90;;;;;;4184274;28;20211;-74
2024/02/15 10:16:50;;;;;;;5.37;2.87;;;11.90;99.90;;;;;;4184420;28;20218;-74
2024/02/15 10:18:53;;;;;;;3.90;2.90;;;11.90;99.90;;;;;;4183854;28;20295;-74
2024/02/15 10:20:59;;;;;;;4.43;2.67;;;11.90;99.90;;;;;;4182575;28;20205;-74
2024/02/15 10:23:19;;;;;;;8.47;3.10;;;12.00;99.90;;;;;;4184264;28;20751;-75
2024/02/15 10:25:22;;;;;;;5.50;2.67;;;12.00;99.90;;;;;;4184770;28;20290;-75
2024/02/15 10:27:23;;;;;;;5.03;2.80;;;12.00;99.90;;;;;;4183184;28;20213;-75
2024/02/15 10:29:26;;;;;;;6.30;2.90;;;12.00;99.90;;;;;;4180713;28;20619;-75
2024/02/15 10:31:28;;;;;;;9.67;2.93;;;12.10;99.90;;;;;;4182508;28;20225;-76
2024/02/15 10:33:30;;;;;;;3.43;2.63;;;12.10;99.90;;;;;;4179922;28;20293;-76
2024/02/15 10:35:34;;;;;;;4.87;2.90;;;12.20;99.90;;;;;;4188525;28;20282;-76
2024/02/15 10:37:37;;;;;;;7.27;2.90;;;12.20;99.90;;;;;;4187991;28;20213;-75
2024/02/15 10:39:39;;;;;;;5.10;2.77;;;12.20;99.90;;;;;;4186939;28;20636;-74
2024/02/15 10:41:41;;;;;;;5.63;3.00;;;12.30;99.90;;;;;;4203001;28;20331;-75
2024/02/15 10:43:45;;;;;;;4.00;2.80;;;12.30;99.90;;;;;;4189311;28;20545;-74
2024/02/15 10:45:49;;;;;;;9.20;5.03;;;12.40;99.90;;;;;;4188797;28;20253;-74
2024/02/15 10:47:52;;;;;;;8.20;4.10;;;12.30;99.90;;;;;;4186891;28;20591;-78
2024/02/15 10:49:55;;;;;;;7.30;4.13;;;12.40;99.90;;;;;;4189965;28;20210;-76
2024/02/15 10:51:57;;;;;;;6.67;3.40;;;12.40;99.90;;;;;;4183595;28;20218;-75
2024/02/15 10:54:05;;;;;;;4.77;2.97;;;12.40;99.90;;;;;;4187715;28;20211;-75
2024/02/15 10:56:17;;;;;;;4.70;2.87;;;12.40;99.90;;;;;;4188246;28;20198;-77
2024/02/15 10:58:21;;;;;;;3.90;2.40;;;12.50;99.90;;;;;;4185912;28;20210;-75
2024/02/15 11:00:31;;;;;;;4.27;2.37;;;12.60;99.90;;;;;;4188146;28;20203;-74